sensor_id;sensor_type;location;lat;lon;timestamp;P1;durP1;ratioP1;P2;durP2;ratioP2
59828;SDS011;45708;51.848;107.620;2023-09-08T00:02:50;1.45;;;1.35;;
59828;SDS011;45708;51.848;107.620;2023-09-08T00:07:51;2.10;;;2.00;;
59828;SDS011;45708;51.848;107.620;2023-09-08T00:12:51;5.47;;;4.97;;
59828;SDS011;45708;51.848;107.620;2023-09-08T00:17:52;7.57;;;4.45;;
59828;SDS011;45708;51.848;107.620;2023-09-08T00:22:53;3.67;;;3.40;;
59828;SDS011;45708;51.848;107.620;2023-09-08T00:27:54;4.47;;;3.85;;
59828;SDS011;45708;51.848;107.620;2023-09-08T00:32:54;5.15;;;3.95;;
59828;SDS011;45708;51.848;107.620;2023-09-08T00:37:55;7.32;;;4.20;;
59828;SDS011;45708;51.848;107.620;2023-09-08T00:42:56;4.53;;;2.42;;
59828;SDS011;45708;51.848;107.620;2023-09-08T00:47:57;4.85;;;4.22;;
59828;SDS011;45708;51.848;107.620;2023-09-08T00:52:58;7.50;;;4.85;;
59828;SDS011;45708;51.848;107.620;2023-09-08T00:57:59;14.60;;;5.43;;
59828;SDS011;45708;51.848;107.620;2023-09-08T01:03:01;4.00;;;3.70;;
59828;SDS011;45708;51.848;107.620;2023-09-08T01:08:01;5.53;;;4.45;;
59828;SDS011;45708;51.848;107.620;2023-09-08T01:13:03;7.60;;;3.88;;
59828;SDS011;45708;51.848;107.620;2023-09-08T01:18:04;5.25;;;4.20;;
59828;SDS011;45708;51.848;107.620;2023-09-08T01:28:11;5.95;;;4.03;;
59828;SDS011;45708;51.848;107.620;2023-09-08T01:33:12;5.07;;;4.57;;
59828;SDS011;45708;51.848;107.620;2023-09-08T01:38:14;7.85;;;4.43;;
59828;SDS011;45708;51.848;107.620;2023-09-08T01:43:15;5.15;;;4.07;;
59828;SDS011;45708;51.848;107.620;2023-09-08T01:48:15;7.07;;;6.35;;
59828;SDS011;45708;51.848;107.620;2023-09-08T01:53:16;6.45;;;4.63;;
59828;SDS011;45708;51.848;107.620;2023-09-08T01:58:17;7.07;;;5.05;;
59828;SDS011;45708;51.848;107.620;2023-09-08T02:03:18;6.45;;;4.53;;
59828;SDS011;45708;51.848;107.620;2023-09-08T02:08:19;7.53;;;4.13;;
59828;SDS011;45708;51.848;107.620;2023-09-08T02:13:20;2.35;;;2.17;;
59828;SDS011;45708;51.848;107.620;2023-09-08T02:18:20;3.72;;;2.58;;
59828;SDS011;45708;51.848;107.620;2023-09-08T02:23:21;3.80;;;2.30;;
59828;SDS011;45708;51.848;107.620;2023-09-08T02:28:22;2.75;;;1.52;;
59828;SDS011;45708;51.848;107.620;2023-09-08T02:33:23;1.92;;;1.50;;
59828;SDS011;45708;51.848;107.620;2023-09-08T02:38:24;2.10;;;1.60;;
59828;SDS011;45708;51.848;107.620;2023-09-08T02:43:24;2.28;;;2.00;;
59828;SDS011;45708;51.848;107.620;2023-09-08T02:48:25;1.48;;;1.38;;
59828;SDS011;45708;51.848;107.620;2023-09-08T02:53:26;2.03;;;1.88;;
59828;SDS011;45708;51.848;107.620;2023-09-08T02:58:27;3.72;;;2.42;;
59828;SDS011;45708;51.848;107.620;2023-09-08T03:03:28;2.45;;;2.17;;
59828;SDS011;45708;51.848;107.620;2023-09-08T03:08:28;2.67;;;2.08;;
59828;SDS011;45708;51.848;107.620;2023-09-08T03:13:30;3.45;;;1.60;;
59828;SDS011;45708;51.848;107.620;2023-09-08T03:18:32;2.22;;;2.03;;
59828;SDS011;45708;51.848;107.620;2023-09-08T03:28:43;2.13;;;2.03;;
59828;SDS011;45708;51.848;107.620;2023-09-08T03:33:45;3.25;;;2.13;;
59828;SDS011;45708;51.848;107.620;2023-09-08T03:38:45;1.75;;;1.65;;
59828;SDS011;45708;51.848;107.620;2023-09-08T03:43:46;3.53;;;1.95;;
59828;SDS011;45708;51.848;107.620;2023-09-08T03:48:47;2.95;;;2.00;;
59828;SDS011;45708;51.848;107.620;2023-09-08T03:53:48;1.42;;;1.33;;
59828;SDS011;45708;51.848;107.620;2023-09-08T03:58:48;2.08;;;1.88;;
59828;SDS011;45708;51.848;107.620;2023-09-08T04:03:49;2.47;;;2.05;;
59828;SDS011;45708;51.848;107.620;2023-09-08T04:08:50;2.47;;;2.00;;
59828;SDS011;45708;51.848;107.620;2023-09-08T04:13:51;4.05;;;3.08;;
59828;SDS011;45708;51.848;107.620;2023-09-08T04:18:52;4.85;;;2.45;;
59828;SDS011;45708;51.848;107.620;2023-09-08T04:23:53;3.20;;;2.70;;
59828;SDS011;45708;51.848;107.620;2023-09-08T04:28:53;3.55;;;2.17;;
59828;SDS011;45708;51.848;107.620;2023-09-08T04:33:54;4.18;;;2.75;;
59828;SDS011;45708;51.848;107.620;2023-09-08T04:38:55;5.35;;;2.05;;
59828;SDS011;45708;51.848;107.620;2023-09-08T04:43:56;1.67;;;1.58;;
59828;SDS011;45708;51.848;107.620;2023-09-08T04:48:57;3.00;;;2.70;;
59828;SDS011;45708;51.848;107.620;2023-09-08T04:53:57;6.03;;;4.03;;
59828;SDS011;45708;51.848;107.620;2023-09-08T04:58:58;4.03;;;3.60;;
59828;SDS011;45708;51.848;107.620;2023-09-08T05:03:59;4.07;;;3.03;;
59828;SDS011;45708;51.848;107.620;2023-09-08T05:09:00;2.42;;;1.70;;
59828;SDS011;45708;51.848;107.620;2023-09-08T05:14:01;2.13;;;1.80;;
59828;SDS011;45708;51.848;107.620;2023-09-08T05:19:03;9.15;;;2.00;;
59828;SDS011;45708;51.848;107.620;2023-09-08T05:24:04;2.85;;;1.67;;
59828;SDS011;45708;51.848;107.620;2023-09-08T05:29:05;5.32;;;1.95;;
59828;SDS011;45708;51.848;107.620;2023-09-08T05:34:06;4.07;;;2.78;;
59828;SDS011;45708;51.848;107.620;2023-09-08T05:39:06;4.80;;;2.47;;
59828;SDS011;45708;51.848;107.620;2023-09-08T05:44:07;1.95;;;1.45;;
59828;SDS011;45708;51.848;107.620;2023-09-08T05:49:08;4.68;;;1.55;;
59828;SDS011;45708;51.848;107.620;2023-09-08T05:54:09;2.42;;;1.80;;
59828;SDS011;45708;51.848;107.620;2023-09-08T05:59:10;1.95;;;1.80;;
59828;SDS011;45708;51.848;107.620;2023-09-08T06:04:11;1.70;;;1.60;;
59828;SDS011;45708;51.848;107.620;2023-09-08T06:09:11;4.20;;;1.83;;
59828;SDS011;45708;51.848;107.620;2023-09-08T06:14:12;3.25;;;2.95;;
59828;SDS011;45708;51.848;107.620;2023-09-08T06:19:13;4.85;;;3.20;;
59828;SDS011;45708;51.848;107.620;2023-09-08T06:24:14;4.05;;;2.75;;
59828;SDS011;45708;51.848;107.620;2023-09-08T06:29:15;2.00;;;1.73;;
59828;SDS011;45708;51.848;107.620;2023-09-08T06:34:15;5.57;;;2.40;;
59828;SDS011;45708;51.848;107.620;2023-09-08T06:39:16;3.78;;;3.10;;
59828;SDS011;45708;51.848;107.620;2023-09-08T06:44:17;2.97;;;2.50;;
59828;SDS011;45708;51.848;107.620;2023-09-08T06:49:19;7.85;;;3.40;;
59828;SDS011;45708;51.848;107.620;2023-09-08T06:54:20;1.35;;;1.25;;
59828;SDS011;45708;51.848;107.620;2023-09-08T06:59:20;2.00;;;1.80;;
59828;SDS011;45708;51.848;107.620;2023-09-08T07:04:21;2.20;;;2.00;;
59828;SDS011;45708;51.848;107.620;2023-09-08T07:09:22;2.22;;;1.98;;
59828;SDS011;45708;51.848;107.620;2023-09-08T07:14:23;2.78;;;1.83;;
59828;SDS011;45708;51.848;107.620;2023-09-08T07:19:25;2.30;;;2.13;;
59828;SDS011;45708;51.848;107.620;2023-09-08T07:24:26;2.47;;;2.03;;
59828;SDS011;45708;51.848;107.620;2023-09-08T07:29:27;2.72;;;1.65;;
59828;SDS011;45708;51.848;107.620;2023-09-08T07:34:28;2.80;;;2.13;;
59828;SDS011;45708;51.848;107.620;2023-09-08T07:39:29;2.25;;;1.83;;
59828;SDS011;45708;51.848;107.620;2023-09-08T07:44:30;2.92;;;2.47;;
59828;SDS011;45708;51.848;107.620;2023-09-08T07:49:32;7.82;;;3.25;;
59828;SDS011;45708;51.848;107.620;2023-09-08T07:54:34;4.03;;;2.15;;
59828;SDS011;45708;51.848;107.620;2023-09-08T07:59:35;3.55;;;2.70;;
59828;SDS011;45708;51.848;107.620;2023-09-08T08:04:36;1.75;;;1.58;;
59828;SDS011;45708;51.848;107.620;2023-09-08T08:09:37;1.77;;;1.67;;
59828;SDS011;45708;51.848;107.620;2023-09-08T08:14:38;3.00;;;2.03;;
59828;SDS011;45708;51.848;107.620;2023-09-08T08:19:38;2.30;;;1.50;;
59828;SDS011;45708;51.848;107.620;2023-09-08T08:24:40;6.45;;;1.85;;
59828;SDS011;45708;51.848;107.620;2023-09-08T08:29:40;2.00;;;1.33;;
59828;SDS011;45708;51.848;107.620;2023-09-08T08:34:41;1.60;;;1.50;;
59828;SDS011;45708;51.848;107.620;2023-09-08T08:39:42;3.22;;;1.75;;
59828;SDS011;45708;51.848;107.620;2023-09-08T08:44:43;1.73;;;1.63;;
59828;SDS011;45708;51.848;107.620;2023-09-08T08:49:44;1.75;;;1.60;;
59828;SDS011;45708;51.848;107.620;2023-09-08T08:54:46;1.73;;;1.63;;
59828;SDS011;45708;51.848;107.620;2023-09-08T08:59:47;2.60;;;1.65;;
59828;SDS011;45708;51.848;107.620;2023-09-08T09:04:48;1.98;;;1.38;;
59828;SDS011;45708;51.848;107.620;2023-09-08T09:09:49;3.30;;;1.77;;
59828;SDS011;45708;51.848;107.620;2023-09-08T09:14:54;2.17;;;1.50;;
59828;SDS011;45708;51.848;107.620;2023-09-08T09:20:17;2.17;;;1.42;;
59828;SDS011;45708;51.848;107.620;2023-09-08T09:25:22;2.28;;;1.95;;
59828;SDS011;45708;51.848;107.620;2023-09-08T09:30:24;3.58;;;2.30;;
59828;SDS011;45708;51.848;107.620;2023-09-08T09:35:42;2.15;;;1.58;;
59828;SDS011;45708;51.848;107.620;2023-09-08T09:40:50;2.83;;;1.60;;
59828;SDS011;45708;51.848;107.620;2023-09-08T09:45:51;2.83;;;2.63;;
59828;SDS011;45708;51.848;107.620;2023-09-08T09:50:51;4.15;;;3.22;;
59828;SDS011;45708;51.848;107.620;2023-09-08T09:55:52;5.85;;;2.13;;
59828;SDS011;45708;51.848;107.620;2023-09-08T10:00:54;5.75;;;2.28;;
59828;SDS011;45708;51.848;107.620;2023-09-08T10:05:55;6.55;;;2.42;;
59828;SDS011;45708;51.848;107.620;2023-09-08T10:10:56;5.50;;;2.30;;
59828;SDS011;45708;51.848;107.620;2023-09-08T10:15:59;4.30;;;1.88;;
59828;SDS011;45708;51.848;107.620;2023-09-08T10:21:03;1.77;;;1.63;;
59828;SDS011;45708;51.848;107.620;2023-09-08T10:26:05;5.20;;;2.45;;
59828;SDS011;45708;51.848;107.620;2023-09-08T10:31:09;2.95;;;1.95;;
59828;SDS011;45708;51.848;107.620;2023-09-08T10:36:10;2.15;;;1.95;;
59828;SDS011;45708;51.848;107.620;2023-09-08T10:46:22;1.70;;;1.60;;
59828;SDS011;45708;51.848;107.620;2023-09-08T10:51:24;1.77;;;1.67;;
59828;SDS011;45708;51.848;107.620;2023-09-08T10:56:29;3.50;;;1.77;;
59828;SDS011;45708;51.848;107.620;2023-09-08T11:01:50;3.65;;;1.88;;
59828;SDS011;45708;51.848;107.620;2023-09-08T11:06:50;1.17;;;1.17;;
59828;SDS011;45708;51.848;107.620;2023-09-08T11:11:51;1.60;;;1.50;;
59828;SDS011;45708;51.848;107.620;2023-09-08T11:16:52;1.88;;;1.27;;
59828;SDS011;45708;51.848;107.620;2023-09-08T11:21:53;1.58;;;1.48;;
59828;SDS011;45708;51.848;107.620;2023-09-08T11:26:54;4.10;;;1.67;;
59828;SDS011;45708;51.848;107.620;2023-09-08T11:31:55;2.38;;;1.70;;
59828;SDS011;45708;51.848;107.620;2023-09-08T11:36:56;2.53;;;1.20;;
59828;SDS011;45708;51.848;107.620;2023-09-08T11:41:58;1.33;;;0.90;;
59828;SDS011;45708;51.848;107.620;2023-09-08T11:47:01;8.32;;;2.65;;
59828;SDS011;45708;51.848;107.620;2023-09-08T11:52:04;4.43;;;2.03;;
59828;SDS011;45708;51.848;107.620;2023-09-08T11:57:05;1.55;;;1.38;;
59828;SDS011;45708;51.848;107.620;2023-09-08T12:02:06;6.50;;;4.10;;
59828;SDS011;45708;51.848;107.620;2023-09-08T12:07:11;5.35;;;3.45;;
59828;SDS011;45708;51.848;107.620;2023-09-08T12:12:13;3.67;;;2.42;;
59828;SDS011;45708;51.848;107.620;2023-09-08T12:17:13;2.35;;;2.10;;
59828;SDS011;45708;51.848;107.620;2023-09-08T12:22:15;1.38;;;1.15;;
59828;SDS011;45708;51.848;107.620;2023-09-08T12:27:16;1.58;;;1.52;;
59828;SDS011;45708;51.848;107.620;2023-09-08T12:32:18;3.67;;;1.05;;
59828;SDS011;45708;51.848;107.620;2023-09-08T12:37:19;5.25;;;2.00;;
59828;SDS011;45708;51.848;107.620;2023-09-08T12:42:24;2.55;;;1.85;;
59828;SDS011;45708;51.848;107.620;2023-09-08T12:47:24;2.38;;;1.58;;
59828;SDS011;45708;51.848;107.620;2023-09-08T12:52:25;1.52;;;1.40;;
59828;SDS011;45708;51.848;107.620;2023-09-08T12:57:26;2.50;;;1.13;;
59828;SDS011;45708;51.848;107.620;2023-09-08T13:02:27;2.47;;;1.50;;
59828;SDS011;45708;51.848;107.620;2023-09-08T13:07:27;2.22;;;1.52;;
59828;SDS011;45708;51.848;107.620;2023-09-08T13:12:28;2.25;;;1.75;;
59828;SDS011;45708;51.848;107.620;2023-09-08T13:17:29;2.15;;;1.45;;
59828;SDS011;45708;51.848;107.620;2023-09-08T13:22:31;3.97;;;1.02;;
59828;SDS011;45708;51.848;107.620;2023-09-08T13:27:32;3.22;;;2.28;;
59828;SDS011;45708;51.848;107.620;2023-09-08T13:32:33;2.33;;;1.40;;
59828;SDS011;45708;51.848;107.620;2023-09-08T13:37:33;1.98;;;1.83;;
59828;SDS011;45708;51.848;107.620;2023-09-08T13:42:34;1.40;;;0.93;;
59828;SDS011;45708;51.848;107.620;2023-09-08T13:47:35;2.67;;;1.90;;
59828;SDS011;45708;51.848;107.620;2023-09-08T13:52:38;2.58;;;1.85;;
59828;SDS011;45708;51.848;107.620;2023-09-08T13:57:38;2.78;;;2.25;;
59828;SDS011;45708;51.848;107.620;2023-09-08T14:02:39;2.10;;;1.08;;
59828;SDS011;45708;51.848;107.620;2023-09-08T14:07:40;3.97;;;2.25;;
59828;SDS011;45708;51.848;107.620;2023-09-08T14:12:41;5.15;;;2.72;;
59828;SDS011;45708;51.848;107.620;2023-09-08T14:17:42;2.97;;;2.78;;
59828;SDS011;45708;51.848;107.620;2023-09-08T14:22:42;1.63;;;1.52;;
59828;SDS011;45708;51.848;107.620;2023-09-08T14:27:43;6.57;;;3.03;;
59828;SDS011;45708;51.848;107.620;2023-09-08T14:32:44;5.30;;;3.40;;
59828;SDS011;45708;51.848;107.620;2023-09-08T14:37:48;4.80;;;2.88;;
59828;SDS011;45708;51.848;107.620;2023-09-08T14:42:49;5.18;;;3.30;;
59828;SDS011;45708;51.848;107.620;2023-09-08T14:47:50;8.23;;;4.90;;
59828;SDS011;45708;51.848;107.620;2023-09-08T14:52:51;3.75;;;3.45;;
59828;SDS011;45708;51.848;107.620;2023-09-08T14:57:51;4.28;;;2.90;;
59828;SDS011;45708;51.848;107.620;2023-09-08T15:02:52;4.88;;;2.83;;
59828;SDS011;45708;51.848;107.620;2023-09-08T15:07:53;4.72;;;3.17;;
59828;SDS011;45708;51.848;107.620;2023-09-08T15:12:54;3.97;;;3.03;;
59828;SDS011;45708;51.848;107.620;2023-09-08T15:17:55;3.05;;;2.63;;
59828;SDS011;45708;51.848;107.620;2023-09-08T15:22:56;10.40;;;4.13;;
59828;SDS011;45708;51.848;107.620;2023-09-08T15:27:57;4.75;;;3.80;;
59828;SDS011;45708;51.848;107.620;2023-09-08T15:33:01;7.97;;;3.78;;
59828;SDS011;45708;51.848;107.620;2023-09-08T15:38:03;9.20;;;5.35;;
59828;SDS011;45708;51.848;107.620;2023-09-08T15:43:04;5.72;;;3.13;;
59828;SDS011;45708;51.848;107.620;2023-09-08T15:48:05;4.68;;;3.65;;
59828;SDS011;45708;51.848;107.620;2023-09-08T15:53:06;4.70;;;3.90;;
59828;SDS011;45708;51.848;107.620;2023-09-08T15:58:07;11.63;;;5.03;;
59828;SDS011;45708;51.848;107.620;2023-09-08T16:03:08;4.05;;;3.75;;
59828;SDS011;45708;51.848;107.620;2023-09-08T16:08:08;5.25;;;3.42;;
59828;SDS011;45708;51.848;107.620;2023-09-08T16:13:09;3.25;;;2.15;;
59828;SDS011;45708;51.848;107.620;2023-09-08T16:18:10;4.47;;;4.07;;
59828;SDS011;45708;51.848;107.620;2023-09-08T16:23:11;3.05;;;1.73;;
59828;SDS011;45708;51.848;107.620;2023-09-08T16:28:12;4.03;;;3.00;;
59828;SDS011;45708;51.848;107.620;2023-09-08T16:33:13;4.32;;;3.92;;
59828;SDS011;45708;51.848;107.620;2023-09-08T16:38:14;9.57;;;6.43;;
59828;SDS011;45708;51.848;107.620;2023-09-08T16:43:15;6.90;;;3.30;;
59828;SDS011;45708;51.848;107.620;2023-09-08T16:48:16;2.95;;;2.25;;
59828;SDS011;45708;51.848;107.620;2023-09-08T16:53:17;4.60;;;3.40;;
59828;SDS011;45708;51.848;107.620;2023-09-08T16:58:18;4.07;;;2.88;;
59828;SDS011;45708;51.848;107.620;2023-09-08T17:03:19;8.05;;;3.42;;
59828;SDS011;45708;51.848;107.620;2023-09-08T17:08:19;5.28;;;3.53;;
59828;SDS011;45708;51.848;107.620;2023-09-08T17:13:20;9.05;;;5.10;;
59828;SDS011;45708;51.848;107.620;2023-09-08T17:18:21;5.07;;;3.13;;
59828;SDS011;45708;51.848;107.620;2023-09-08T17:23:23;3.45;;;2.78;;
59828;SDS011;45708;51.848;107.620;2023-09-08T17:28:24;3.15;;;2.83;;
59828;SDS011;45708;51.848;107.620;2023-09-08T17:33:25;5.22;;;3.20;;
59828;SDS011;45708;51.848;107.620;2023-09-08T17:38:25;6.65;;;4.03;;
59828;SDS011;45708;51.848;107.620;2023-09-08T17:43:26;6.10;;;2.70;;
59828;SDS011;45708;51.848;107.620;2023-09-08T17:48:27;5.80;;;4.63;;
59828;SDS011;45708;51.848;107.620;2023-09-08T17:53:28;3.38;;;2.33;;
59828;SDS011;45708;51.848;107.620;2023-09-08T17:58:29;6.18;;;4.32;;
59828;SDS011;45708;51.848;107.620;2023-09-08T18:03:29;3.53;;;3.22;;
59828;SDS011;45708;51.848;107.620;2023-09-08T18:08:30;3.42;;;3.13;;
59828;SDS011;45708;51.848;107.620;2023-09-08T18:13:31;15.05;;;3.35;;
59828;SDS011;45708;51.848;107.620;2023-09-08T18:18:32;3.53;;;2.13;;
59828;SDS011;45708;51.848;107.620;2023-09-08T18:23:33;7.03;;;3.67;;
59828;SDS011;45708;51.848;107.620;2023-09-08T18:28:33;5.10;;;3.20;;
59828;SDS011;45708;51.848;107.620;2023-09-08T18:33:34;3.35;;;2.95;;
59828;SDS011;45708;51.848;107.620;2023-09-08T18:38:35;3.38;;;2.90;;
59828;SDS011;45708;51.848;107.620;2023-09-08T18:43:36;3.42;;;2.60;;
59828;SDS011;45708;51.848;107.620;2023-09-08T18:48:37;3.47;;;2.60;;
59828;SDS011;45708;51.848;107.620;2023-09-08T18:53:38;2.20;;;2.00;;
59828;SDS011;45708;51.848;107.620;2023-09-08T18:58:39;3.95;;;2.50;;
59828;SDS011;45708;51.848;107.620;2023-09-08T19:03:40;1.98;;;1.63;;
59828;SDS011;45708;51.848;107.620;2023-09-08T19:08:41;1.88;;;1.70;;
59828;SDS011;45708;51.848;107.620;2023-09-08T19:13:41;3.13;;;2.40;;
59828;SDS011;45708;51.848;107.620;2023-09-08T19:18:42;1.92;;;1.83;;
59828;SDS011;45708;51.848;107.620;2023-09-08T19:23:43;3.00;;;2.53;;
59828;SDS011;45708;51.848;107.620;2023-09-08T19:28:44;2.55;;;2.40;;
59828;SDS011;45708;51.848;107.620;2023-09-08T19:33:45;3.35;;;2.40;;
59828;SDS011;45708;51.848;107.620;2023-09-08T19:38:45;1.70;;;1.60;;
59828;SDS011;45708;51.848;107.620;2023-09-08T19:43:47;4.63;;;1.90;;
59828;SDS011;45708;51.848;107.620;2023-09-08T19:48:48;3.67;;;1.75;;
59828;SDS011;45708;51.848;107.620;2023-09-08T19:53:49;2.20;;;2.00;;
59828;SDS011;45708;51.848;107.620;2023-09-08T19:58:49;1.27;;;1.27;;
59828;SDS011;45708;51.848;107.620;2023-09-08T20:03:50;5.55;;;2.50;;
59828;SDS011;45708;51.848;107.620;2023-09-08T20:08:51;2.85;;;2.65;;
59828;SDS011;45708;51.848;107.620;2023-09-08T20:13:52;3.30;;;2.45;;
59828;SDS011;45708;51.848;107.620;2023-09-08T20:18:53;1.77;;;1.60;;
59828;SDS011;45708;51.848;107.620;2023-09-08T20:23:54;2.22;;;2.03;;
59828;SDS011;45708;51.848;107.620;2023-09-08T20:28:55;3.03;;;2.13;;
59828;SDS011;45708;51.848;107.620;2023-09-08T20:33:56;2.75;;;2.15;;
59828;SDS011;45708;51.848;107.620;2023-09-08T20:38:57;2.72;;;1.50;;
59828;SDS011;45708;51.848;107.620;2023-09-08T20:43:57;1.90;;;1.52;;
59828;SDS011;45708;51.848;107.620;2023-09-08T20:48:58;2.45;;;1.70;;
59828;SDS011;45708;51.848;107.620;2023-09-08T20:59:09;4.03;;;1.67;;
59828;SDS011;45708;51.848;107.620;2023-09-08T21:04:10;6.10;;;0.82;;
59828;SDS011;45708;51.848;107.620;2023-09-08T21:09:11;0.70;;;0.60;;
59828;SDS011;45708;51.848;107.620;2023-09-08T21:14:12;0.57;;;0.57;;
59828;SDS011;45708;51.848;107.620;2023-09-08T21:19:13;0.20;;;0.20;;
59828;SDS011;45708;51.848;107.620;2023-09-08T21:24:14;0.17;;;0.17;;
59828;SDS011;45708;51.848;107.620;2023-09-08T21:29:14;0.25;;;0.25;;
59828;SDS011;45708;51.848;107.620;2023-09-08T21:34:17;1.20;;;0.73;;
59828;SDS011;45708;51.848;107.620;2023-09-08T21:39:18;0.10;;;0.10;;
59828;SDS011;45708;51.848;107.620;2023-09-08T21:44:19;0.43;;;0.43;;
59828;SDS011;45708;51.848;107.620;2023-09-08T21:49:19;1.15;;;0.40;;
59828;SDS011;45708;51.848;107.620;2023-09-08T21:54:20;0.22;;;0.22;;
59828;SDS011;45708;51.848;107.620;2023-09-08T21:59:22;2.00;;;1.15;;
59828;SDS011;45708;51.848;107.620;2023-09-08T22:04:22;0.85;;;0.85;;
59828;SDS011;45708;51.848;107.620;2023-09-08T22:09:23;0.03;;;0.03;;
59828;SDS011;45708;51.848;107.620;2023-09-08T22:14:24;0.40;;;0.40;;
59828;SDS011;45708;51.848;107.620;2023-09-08T22:19:25;0.45;;;0.43;;
59828;SDS011;45708;51.848;107.620;2023-09-08T22:24:26;0.40;;;0.40;;
59828;SDS011;45708;51.848;107.620;2023-09-08T22:29:26;0.77;;;0.68;;
59828;SDS011;45708;51.848;107.620;2023-09-08T22:34:27;0.13;;;0.13;;
59828;SDS011;45708;51.848;107.620;2023-09-08T22:39:28;0.00;;;0.00;;
59828;SDS011;45708;51.848;107.620;2023-09-08T22:44:29;0.10;;;0.10;;
59828;SDS011;45708;51.848;107.620;2023-09-08T22:49:32;1.65;;;0.93;;
59828;SDS011;45708;51.848;107.620;2023-09-08T22:54:33;0.10;;;0.10;;
59828;SDS011;45708;51.848;107.620;2023-09-08T22:59:34;0.20;;;0.20;;
59828;SDS011;45708;51.848;107.620;2023-09-08T23:04:35;0.00;;;0.00;;
59828;SDS011;45708;51.848;107.620;2023-09-08T23:09:36;0.75;;;0.63;;
59828;SDS011;45708;51.848;107.620;2023-09-08T23:14:36;2.65;;;2.10;;
59828;SDS011;45708;51.848;107.620;2023-09-08T23:19:37;0.75;;;0.75;;
59828;SDS011;45708;51.848;107.620;2023-09-08T23:24:38;0.43;;;0.43;;
59828;SDS011;45708;51.848;107.620;2023-09-08T23:29:40;0.47;;;0.47;;
59828;SDS011;45708;51.848;107.620;2023-09-08T23:34:42;0.20;;;0.20;;
59828;SDS011;45708;51.848;107.620;2023-09-08T23:39:42;1.67;;;0.90;;
59828;SDS011;45708;51.848;107.620;2023-09-08T23:44:43;1.73;;;0.35;;
59828;SDS011;45708;51.848;107.620;2023-09-08T23:49:44;0.73;;;0.60;;
59828;SDS011;45708;51.848;107.620;2023-09-08T23:54:45;0.20;;;0.20;;
59828;SDS011;45708;51.848;107.620;2023-09-08T23:59:46;0.20;;;0.20;;
